sensor_id;sensor_type;location;lat;lon;timestamp;temperature;humidity
9057;DHT22;4563;54.756;9.400;2022-09-09T00:01:18;17.70;75.30
9057;DHT22;4563;54.756;9.400;2022-09-09T00:03:54;17.70;75.20
9057;DHT22;4563;54.756;9.400;2022-09-09T00:06:28;17.70;75.30
9057;DHT22;4563;54.756;9.400;2022-09-09T00:09:02;17.70;75.40
9057;DHT22;4563;54.756;9.400;2022-09-09T00:11:39;17.70;75.40
9057;DHT22;4563;54.756;9.400;2022-09-09T00:14:13;17.70;75.50
9057;DHT22;4563;54.756;9.400;2022-09-09T00:16:46;17.70;75.60
9057;DHT22;4563;54.756;9.400;2022-09-09T00:19:20;17.70;75.80
9057;DHT22;4563;54.756;9.400;2022-09-09T00:21:53;17.70;75.70
9057;DHT22;4563;54.756;9.400;2022-09-09T00:24:27;17.70;75.80
9057;DHT22;4563;54.756;9.400;2022-09-09T00:27:00;17.70;75.80
9057;DHT22;4563;54.756;9.400;2022-09-09T00:29:34;17.80;75.90
9057;DHT22;4563;54.756;9.400;2022-09-09T00:32:12;17.70;75.70
9057;DHT22;4563;54.756;9.400;2022-09-09T00:34:47;17.80;75.70
9057;DHT22;4563;54.756;9.400;2022-09-09T00:37:15;17.80;75.70
9057;DHT22;4563;54.756;9.400;2022-09-09T00:39:44;17.80;75.90
9057;DHT22;4563;54.756;9.400;2022-09-09T00:42:15;17.80;75.90
9057;DHT22;4563;54.756;9.400;2022-09-09T00:44:58;17.80;75.90
9057;DHT22;4563;54.756;9.400;2022-09-09T00:47:45;17.80;75.50
9057;DHT22;4563;54.756;9.400;2022-09-09T00:50:29;17.80;75.30
9057;DHT22;4563;54.756;9.400;2022-09-09T00:53:09;17.70;75.50
9057;DHT22;4563;54.756;9.400;2022-09-09T00:55:43;17.70;75.70
9057;DHT22;4563;54.756;9.400;2022-09-09T00:58:12;17.80;75.90
9057;DHT22;4563;54.756;9.400;2022-09-09T01:00:43;17.80;75.90
9057;DHT22;4563;54.756;9.400;2022-09-09T01:03:20;17.80;75.90
9057;DHT22;4563;54.756;9.400;2022-09-09T01:06:11;17.80;75.80
9057;DHT22;4563;54.756;9.400;2022-09-09T01:08:49;17.80;75.90
9057;DHT22;4563;54.756;9.400;2022-09-09T01:11:22;17.80;75.80
9057;DHT22;4563;54.756;9.400;2022-09-09T01:13:56;17.80;75.90
9057;DHT22;4563;54.756;9.400;2022-09-09T01:16:28;17.80;75.90
9057;DHT22;4563;54.756;9.400;2022-09-09T01:18:56;17.80;75.90
9057;DHT22;4563;54.756;9.400;2022-09-09T01:21:32;17.80;76.00
9057;DHT22;4563;54.756;9.400;2022-09-09T01:24:19;17.80;75.90
9057;DHT22;4563;54.756;9.400;2022-09-09T01:26:52;17.80;76.30
9057;DHT22;4563;54.756;9.400;2022-09-09T01:29:21;17.80;75.90
9057;DHT22;4563;54.756;9.400;2022-09-09T01:31:54;17.80;76.00
9057;DHT22;4563;54.756;9.400;2022-09-09T01:34:23;17.80;75.90
9057;DHT22;4563;54.756;9.400;2022-09-09T01:36:57;17.80;76.10
9057;DHT22;4563;54.756;9.400;2022-09-09T01:39:24;17.80;76.70
9057;DHT22;4563;54.756;9.400;2022-09-09T01:41:53;17.80;76.10
9057;DHT22;4563;54.756;9.400;2022-09-09T01:44:21;17.80;76.20
9057;DHT22;4563;54.756;9.400;2022-09-09T01:46:49;17.80;76.10
9057;DHT22;4563;54.756;9.400;2022-09-09T01:49:16;17.80;76.20
9057;DHT22;4563;54.756;9.400;2022-09-09T01:51:47;17.80;76.20
9057;DHT22;4563;54.756;9.400;2022-09-09T01:54:16;17.80;76.20
9057;DHT22;4563;54.756;9.400;2022-09-09T01:56:50;17.80;76.10
9057;DHT22;4563;54.756;9.400;2022-09-09T01:59:36;17.80;76.20
9057;DHT22;4563;54.756;9.400;2022-09-09T02:02:10;17.80;75.90
9057;DHT22;4563;54.756;9.400;2022-09-09T02:04:39;17.80;76.20
9057;DHT22;4563;54.756;9.400;2022-09-09T02:07:15;17.80;76.30
9057;DHT22;4563;54.756;9.400;2022-09-09T02:09:52;17.80;77.00
9057;DHT22;4563;54.756;9.400;2022-09-09T02:12:24;17.80;76.30
9057;DHT22;4563;54.756;9.400;2022-09-09T02:14:57;17.90;76.40
9057;DHT22;4563;54.756;9.400;2022-09-09T02:17:28;17.80;76.30
9057;DHT22;4563;54.756;9.400;2022-09-09T02:20:00;17.80;76.30
9057;DHT22;4563;54.756;9.400;2022-09-09T02:22:29;17.80;76.30
9057;DHT22;4563;54.756;9.400;2022-09-09T02:25:00;17.80;76.40
9057;DHT22;4563;54.756;9.400;2022-09-09T02:27:27;17.80;76.30
9057;DHT22;4563;54.756;9.400;2022-09-09T02:29:56;17.90;76.50
9057;DHT22;4563;54.756;9.400;2022-09-09T02:32:25;17.80;76.40
9057;DHT22;4563;54.756;9.400;2022-09-09T02:34:58;17.90;76.50
9057;DHT22;4563;54.756;9.400;2022-09-09T02:37:32;17.80;76.40
9057;DHT22;4563;54.756;9.400;2022-09-09T02:40:01;17.80;76.40
9057;DHT22;4563;54.756;9.400;2022-09-09T02:42:28;17.90;76.60
9057;DHT22;4563;54.756;9.400;2022-09-09T02:44:56;17.80;76.50
9057;DHT22;4563;54.756;9.400;2022-09-09T02:47:27;17.80;76.70
9057;DHT22;4563;54.756;9.400;2022-09-09T02:50:07;17.90;76.80
9057;DHT22;4563;54.756;9.400;2022-09-09T02:52:42;17.90;76.50
9057;DHT22;4563;54.756;9.400;2022-09-09T02:55:17;17.90;76.80
9057;DHT22;4563;54.756;9.400;2022-09-09T02:57:47;17.90;76.80
9057;DHT22;4563;54.756;9.400;2022-09-09T03:00:16;17.80;76.80
9057;DHT22;4563;54.756;9.400;2022-09-09T03:02:49;17.90;76.90
9057;DHT22;4563;54.756;9.400;2022-09-09T03:05:16;17.90;76.90
9057;DHT22;4563;54.756;9.400;2022-09-09T03:07:43;17.90;77.00
9057;DHT22;4563;54.756;9.400;2022-09-09T03:10:10;17.90;76.90
9057;DHT22;4563;54.756;9.400;2022-09-09T03:12:37;17.90;76.90
9057;DHT22;4563;54.756;9.400;2022-09-09T03:15:05;18.00;77.10
9057;DHT22;4563;54.756;9.400;2022-09-09T03:17:33;17.90;77.10
9057;DHT22;4563;54.756;9.400;2022-09-09T03:20:01;17.90;77.10
9057;DHT22;4563;54.756;9.400;2022-09-09T03:22:28;18.00;77.20
9057;DHT22;4563;54.756;9.400;2022-09-09T03:24:54;17.90;77.10
9057;DHT22;4563;54.756;9.400;2022-09-09T03:27:21;18.00;77.20
9057;DHT22;4563;54.756;9.400;2022-09-09T03:29:48;17.90;77.10
9057;DHT22;4563;54.756;9.400;2022-09-09T03:32:16;18.00;77.30
9057;DHT22;4563;54.756;9.400;2022-09-09T03:34:45;18.00;77.30
9057;DHT22;4563;54.756;9.400;2022-09-09T03:37:13;18.00;77.40
9057;DHT22;4563;54.756;9.400;2022-09-09T03:39:39;18.00;77.40
9057;DHT22;4563;54.756;9.400;2022-09-09T03:42:06;18.00;77.50
9057;DHT22;4563;54.756;9.400;2022-09-09T03:44:33;18.00;77.50
9057;DHT22;4563;54.756;9.400;2022-09-09T03:47:00;18.00;77.50
9057;DHT22;4563;54.756;9.400;2022-09-09T03:49:27;18.00;77.60
9057;DHT22;4563;54.756;9.400;2022-09-09T03:51:56;18.00;77.60
9057;DHT22;4563;54.756;9.400;2022-09-09T03:54:24;18.00;77.60
9057;DHT22;4563;54.756;9.400;2022-09-09T03:56:51;18.00;77.60
9057;DHT22;4563;54.756;9.400;2022-09-09T03:59:18;18.00;77.70
9057;DHT22;4563;54.756;9.400;2022-09-09T04:01:46;18.00;77.70
9057;DHT22;4563;54.756;9.400;2022-09-09T04:04:12;18.00;77.80
9057;DHT22;4563;54.756;9.400;2022-09-09T04:06:39;18.10;78.00
9057;DHT22;4563;54.756;9.400;2022-09-09T04:09:07;18.00;77.90
9057;DHT22;4563;54.756;9.400;2022-09-09T04:11:34;18.00;78.00
9057;DHT22;4563;54.756;9.400;2022-09-09T04:14:02;18.00;78.10
9057;DHT22;4563;54.756;9.400;2022-09-09T04:16:29;18.10;78.30
9057;DHT22;4563;54.756;9.400;2022-09-09T04:18:56;18.10;78.30
9057;DHT22;4563;54.756;9.400;2022-09-09T04:21:23;18.00;78.20
9057;DHT22;4563;54.756;9.400;2022-09-09T04:23:50;18.10;78.30
9057;DHT22;4563;54.756;9.400;2022-09-09T04:26:18;18.10;78.40
9057;DHT22;4563;54.756;9.400;2022-09-09T04:28:45;18.10;78.50
9057;DHT22;4563;54.756;9.400;2022-09-09T04:31:16;18.10;78.30
9057;DHT22;4563;54.756;9.400;2022-09-09T04:33:44;18.10;78.50
9057;DHT22;4563;54.756;9.400;2022-09-09T04:36:12;18.10;78.60
9057;DHT22;4563;54.756;9.400;2022-09-09T04:38:39;18.10;78.50
9057;DHT22;4563;54.756;9.400;2022-09-09T04:41:06;18.10;78.50
9057;DHT22;4563;54.756;9.400;2022-09-09T04:43:38;18.10;78.50
9057;DHT22;4563;54.756;9.400;2022-09-09T04:46:05;18.10;78.60
9057;DHT22;4563;54.756;9.400;2022-09-09T04:48:32;18.10;78.60
9057;DHT22;4563;54.756;9.400;2022-09-09T04:51:00;18.10;78.60
9057;DHT22;4563;54.756;9.400;2022-09-09T04:53:28;18.10;78.70
9057;DHT22;4563;54.756;9.400;2022-09-09T04:56:02;18.10;78.50
9057;DHT22;4563;54.756;9.400;2022-09-09T04:58:29;18.10;78.40
9057;DHT22;4563;54.756;9.400;2022-09-09T05:01:04;18.10;78.40
9057;DHT22;4563;54.756;9.400;2022-09-09T05:03:31;18.10;78.20
9057;DHT22;4563;54.756;9.400;2022-09-09T05:06:05;18.10;78.40
9057;DHT22;4563;54.756;9.400;2022-09-09T05:08:32;18.10;78.40
9057;DHT22;4563;54.756;9.400;2022-09-09T05:10:58;18.10;78.40
9057;DHT22;4563;54.756;9.400;2022-09-09T05:13:26;18.10;78.40
9057;DHT22;4563;54.756;9.400;2022-09-09T05:15:53;18.10;78.40
9057;DHT22;4563;54.756;9.400;2022-09-09T05:18:21;18.10;78.40
9057;DHT22;4563;54.756;9.400;2022-09-09T05:20:48;18.10;78.40
9057;DHT22;4563;54.756;9.400;2022-09-09T05:23:16;18.10;78.30
9057;DHT22;4563;54.756;9.400;2022-09-09T05:25:43;18.10;78.10
9057;DHT22;4563;54.756;9.400;2022-09-09T05:28:12;18.10;78.20
9057;DHT22;4563;54.756;9.400;2022-09-09T05:30:39;18.10;78.10
9057;DHT22;4563;54.756;9.400;2022-09-09T05:33:05;18.10;78.00
9057;DHT22;4563;54.756;9.400;2022-09-09T05:35:36;18.00;77.90
9057;DHT22;4563;54.756;9.400;2022-09-09T05:38:04;18.00;77.90
9057;DHT22;4563;54.756;9.400;2022-09-09T05:40:32;18.00;77.90
9057;DHT22;4563;54.756;9.400;2022-09-09T05:43:00;18.00;77.80
9057;DHT22;4563;54.756;9.400;2022-09-09T05:45:27;18.00;77.80
9057;DHT22;4563;54.756;9.400;2022-09-09T05:47:54;18.00;77.80
9057;DHT22;4563;54.756;9.400;2022-09-09T05:50:21;18.00;77.80
9057;DHT22;4563;54.756;9.400;2022-09-09T05:52:49;18.00;77.80
9057;DHT22;4563;54.756;9.400;2022-09-09T05:55:16;18.00;77.70
9057;DHT22;4563;54.756;9.400;2022-09-09T05:57:48;18.00;77.80
9057;DHT22;4563;54.756;9.400;2022-09-09T06:00:15;17.90;77.50
9057;DHT22;4563;54.756;9.400;2022-09-09T06:02:42;18.00;77.80
9057;DHT22;4563;54.756;9.400;2022-09-09T06:05:09;17.90;77.60
9057;DHT22;4563;54.756;9.400;2022-09-09T06:07:37;18.00;77.80
9057;DHT22;4563;54.756;9.400;2022-09-09T06:10:09;17.90;77.60
9057;DHT22;4563;54.756;9.400;2022-09-09T06:12:36;17.90;77.50
9057;DHT22;4563;54.756;9.400;2022-09-09T06:15:03;17.90;77.70
9057;DHT22;4563;54.756;9.400;2022-09-09T06:17:30;17.90;77.80
9057;DHT22;4563;54.756;9.400;2022-09-09T06:19:57;17.90;77.80
9057;DHT22;4563;54.756;9.400;2022-09-09T06:22:24;17.90;77.80
9057;DHT22;4563;54.756;9.400;2022-09-09T06:24:51;17.90;77.90
9057;DHT22;4563;54.756;9.400;2022-09-09T06:27:20;17.90;77.90
9057;DHT22;4563;54.756;9.400;2022-09-09T06:29:47;17.90;77.80
9057;DHT22;4563;54.756;9.400;2022-09-09T06:32:14;17.90;77.90
9057;DHT22;4563;54.756;9.400;2022-09-09T06:34:41;17.90;77.90
9057;DHT22;4563;54.756;9.400;2022-09-09T06:37:07;17.90;77.90
9057;DHT22;4563;54.756;9.400;2022-09-09T06:39:34;17.90;77.90
9057;DHT22;4563;54.756;9.400;2022-09-09T06:42:01;17.90;77.90
9057;DHT22;4563;54.756;9.400;2022-09-09T06:44:29;17.90;77.80
9057;DHT22;4563;54.756;9.400;2022-09-09T06:46:57;17.90;78.00
9057;DHT22;4563;54.756;9.400;2022-09-09T06:49:25;17.90;77.90
9057;DHT22;4563;54.756;9.400;2022-09-09T06:51:52;17.90;77.80
9057;DHT22;4563;54.756;9.400;2022-09-09T06:54:19;17.90;77.80
9057;DHT22;4563;54.756;9.400;2022-09-09T06:56:47;17.90;77.80
9057;DHT22;4563;54.756;9.400;2022-09-09T06:59:15;17.90;77.80
9057;DHT22;4563;54.756;9.400;2022-09-09T07:01:43;17.90;77.70
9057;DHT22;4563;54.756;9.400;2022-09-09T07:04:10;17.90;77.70
9057;DHT22;4563;54.756;9.400;2022-09-09T07:06:40;17.90;77.80
9057;DHT22;4563;54.756;9.400;2022-09-09T07:09:10;17.90;77.80
9057;DHT22;4563;54.756;9.400;2022-09-09T07:11:38;17.90;77.90
9057;DHT22;4563;54.756;9.400;2022-09-09T07:14:07;17.90;78.00
9057;DHT22;4563;54.756;9.400;2022-09-09T07:16:34;17.90;78.00
9057;DHT22;4563;54.756;9.400;2022-09-09T07:19:04;17.90;77.80
9057;DHT22;4563;54.756;9.400;2022-09-09T07:21:31;17.90;77.80
9057;DHT22;4563;54.756;9.400;2022-09-09T07:23:58;17.80;77.70
9057;DHT22;4563;54.756;9.400;2022-09-09T07:26:28;17.90;77.80
9057;DHT22;4563;54.756;9.400;2022-09-09T07:28:55;17.80;77.40
9057;DHT22;4563;54.756;9.400;2022-09-09T07:31:25;17.90;77.70
9057;DHT22;4563;54.756;9.400;2022-09-09T07:33:56;17.80;77.60
9057;DHT22;4563;54.756;9.400;2022-09-09T07:36:25;17.80;77.60
9057;DHT22;4563;54.756;9.400;2022-09-09T07:38:54;17.80;77.70
9057;DHT22;4563;54.756;9.400;2022-09-09T07:41:23;17.80;77.80
9057;DHT22;4563;54.756;9.400;2022-09-09T07:43:51;17.80;77.80
9057;DHT22;4563;54.756;9.400;2022-09-09T07:46:21;17.80;77.90
9057;DHT22;4563;54.756;9.400;2022-09-09T07:48:49;17.80;77.90
9057;DHT22;4563;54.756;9.400;2022-09-09T07:51:19;17.80;78.00
9057;DHT22;4563;54.756;9.400;2022-09-09T07:53:52;17.90;78.10
9057;DHT22;4563;54.756;9.400;2022-09-09T07:56:19;17.90;78.00
9057;DHT22;4563;54.756;9.400;2022-09-09T07:58:47;17.90;78.10
9057;DHT22;4563;54.756;9.400;2022-09-09T08:01:16;17.90;78.10
9057;DHT22;4563;54.756;9.400;2022-09-09T08:03:44;17.90;78.10
9057;DHT22;4563;54.756;9.400;2022-09-09T08:06:12;17.90;78.10
9057;DHT22;4563;54.756;9.400;2022-09-09T08:08:40;18.00;78.20
9057;DHT22;4563;54.756;9.400;2022-09-09T08:11:14;17.90;78.10
9057;DHT22;4563;54.756;9.400;2022-09-09T08:13:43;18.00;78.20
9057;DHT22;4563;54.756;9.400;2022-09-09T08:16:12;17.90;78.20
9057;DHT22;4563;54.756;9.400;2022-09-09T08:18:40;18.00;78.30
9057;DHT22;4563;54.756;9.400;2022-09-09T08:21:11;18.00;78.30
9057;DHT22;4563;54.756;9.400;2022-09-09T08:23:39;18.00;78.30
9057;DHT22;4563;54.756;9.400;2022-09-09T08:26:11;18.00;78.40
9057;DHT22;4563;54.756;9.400;2022-09-09T08:28:38;18.10;78.60
9057;DHT22;4563;54.756;9.400;2022-09-09T08:31:10;18.10;79.10
9057;DHT22;4563;54.756;9.400;2022-09-09T08:33:38;18.10;78.30
9057;DHT22;4563;54.756;9.400;2022-09-09T08:36:05;18.10;78.20
9057;DHT22;4563;54.756;9.400;2022-09-09T08:38:34;18.10;78.20
9057;DHT22;4563;54.756;9.400;2022-09-09T08:41:20;18.20;78.10
9057;DHT22;4563;54.756;9.400;2022-09-09T08:43:58;18.20;78.00
9057;DHT22;4563;54.756;9.400;2022-09-09T08:46:30;18.20;78.00
9057;DHT22;4563;54.756;9.400;2022-09-09T08:49:03;18.20;78.00
9057;DHT22;4563;54.756;9.400;2022-09-09T08:51:33;18.20;78.00
9057;DHT22;4563;54.756;9.400;2022-09-09T08:54:02;18.30;78.00
9057;DHT22;4563;54.756;9.400;2022-09-09T08:56:32;18.30;78.00
9057;DHT22;4563;54.756;9.400;2022-09-09T08:59:00;18.30;77.90
9057;DHT22;4563;54.756;9.400;2022-09-09T09:01:54;18.30;78.10
9057;DHT22;4563;54.756;9.400;2022-09-09T09:04:37;18.30;77.20
9057;DHT22;4563;54.756;9.400;2022-09-09T09:07:17;18.30;77.80
9057;DHT22;4563;54.756;9.400;2022-09-09T09:09:52;18.40;77.90
9057;DHT22;4563;54.756;9.400;2022-09-09T09:12:28;18.40;78.10
9057;DHT22;4563;54.756;9.400;2022-09-09T09:14:56;18.40;78.00
9057;DHT22;4563;54.756;9.400;2022-09-09T09:17:27;18.40;78.10
9057;DHT22;4563;54.756;9.400;2022-09-09T09:19:57;18.40;78.10
9057;DHT22;4563;54.756;9.400;2022-09-09T09:22:29;18.50;78.20
9057;DHT22;4563;54.756;9.400;2022-09-09T09:25:03;18.50;78.10
9057;DHT22;4563;54.756;9.400;2022-09-09T09:27:42;18.50;78.00
9057;DHT22;4563;54.756;9.400;2022-09-09T09:30:15;18.50;78.00
9057;DHT22;4563;54.756;9.400;2022-09-09T09:32:49;18.50;78.00
9057;DHT22;4563;54.756;9.400;2022-09-09T09:35:17;18.60;78.20
9057;DHT22;4563;54.756;9.400;2022-09-09T09:37:44;18.60;78.20
9057;DHT22;4563;54.756;9.400;2022-09-09T09:40:30;18.60;78.30
9057;DHT22;4563;54.756;9.400;2022-09-09T09:43:01;18.60;77.70
9057;DHT22;4563;54.756;9.400;2022-09-09T09:45:34;18.60;78.30
9057;DHT22;4563;54.756;9.400;2022-09-09T09:48:15;18.70;78.40
9057;DHT22;4563;54.756;9.400;2022-09-09T09:50:48;18.70;78.40
9057;DHT22;4563;54.756;9.400;2022-09-09T09:53:21;18.70;78.10
9057;DHT22;4563;54.756;9.400;2022-09-09T09:55:54;18.70;78.30
9057;DHT22;4563;54.756;9.400;2022-09-09T09:58:23;18.80;78.50
9057;DHT22;4563;54.756;9.400;2022-09-09T10:00:52;18.90;78.70
9057;DHT22;4563;54.756;9.400;2022-09-09T10:03:25;18.90;78.80
9057;DHT22;4563;54.756;9.400;2022-09-09T10:05:53;18.90;78.70
9057;DHT22;4563;54.756;9.400;2022-09-09T10:08:22;19.00;78.80
9057;DHT22;4563;54.756;9.400;2022-09-09T10:10:59;19.00;78.70
9057;DHT22;4563;54.756;9.400;2022-09-09T10:13:36;19.10;78.80
9057;DHT22;4563;54.756;9.400;2022-09-09T10:16:21;19.10;78.20
9057;DHT22;4563;54.756;9.400;2022-09-09T10:18:58;19.20;77.70
9057;DHT22;4563;54.756;9.400;2022-09-09T10:21:47;19.30;77.80
9057;DHT22;4563;54.756;9.400;2022-09-09T10:27:27;19.30;76.90
9057;DHT22;4563;54.756;9.400;2022-09-09T10:30:06;19.40;77.50
9057;DHT22;4563;54.756;9.400;2022-09-09T10:32:40;19.40;77.80
9057;DHT22;4563;54.756;9.400;2022-09-09T10:35:14;19.50;77.20
9057;DHT22;4563;54.756;9.400;2022-09-09T10:38:05;19.50;76.90
9057;DHT22;4563;54.756;9.400;2022-09-09T10:40:39;19.50;76.50
9057;DHT22;4563;54.756;9.400;2022-09-09T10:43:16;19.60;77.00
9057;DHT22;4563;54.756;9.400;2022-09-09T10:45:56;19.60;76.80
9057;DHT22;4563;54.756;9.400;2022-09-09T10:48:36;19.70;76.70
9057;DHT22;4563;54.756;9.400;2022-09-09T10:51:21;19.70;76.80
9057;DHT22;4563;54.756;9.400;2022-09-09T10:53:59;19.80;76.50
9057;DHT22;4563;54.756;9.400;2022-09-09T10:56:31;19.80;76.60
9057;DHT22;4563;54.756;9.400;2022-09-09T10:59:02;19.80;76.60
9057;DHT22;4563;54.756;9.400;2022-09-09T11:01:37;19.90;76.40
9057;DHT22;4563;54.756;9.400;2022-09-09T11:04:15;19.90;76.10
9057;DHT22;4563;54.756;9.400;2022-09-09T11:06:47;19.90;76.10
9057;DHT22;4563;54.756;9.400;2022-09-09T11:09:19;20.00;76.50
9057;DHT22;4563;54.756;9.400;2022-09-09T11:11:52;20.00;76.40
9057;DHT22;4563;54.756;9.400;2022-09-09T11:14:25;20.10;76.40
9057;DHT22;4563;54.756;9.400;2022-09-09T11:16:58;20.10;76.10
9057;DHT22;4563;54.756;9.400;2022-09-09T11:19:29;20.20;76.20
9057;DHT22;4563;54.756;9.400;2022-09-09T11:22:01;20.30;76.30
9057;DHT22;4563;54.756;9.400;2022-09-09T11:24:34;20.40;76.40
9057;DHT22;4563;54.756;9.400;2022-09-09T11:27:06;20.50;76.30
9057;DHT22;4563;54.756;9.400;2022-09-09T11:30:10;20.50;75.80
9057;DHT22;4563;54.756;9.400;2022-09-09T11:33:00;20.60;75.30
9057;DHT22;4563;54.756;9.400;2022-09-09T11:35:38;20.70;75.30
9057;DHT22;4563;54.756;9.400;2022-09-09T11:38:18;20.70;75.20
9057;DHT22;4563;54.756;9.400;2022-09-09T11:40:45;20.80;74.90
9057;DHT22;4563;54.756;9.400;2022-09-09T11:43:15;20.80;75.10
9057;DHT22;4563;54.756;9.400;2022-09-09T11:45:51;20.90;75.20
9057;DHT22;4563;54.756;9.400;2022-09-09T11:48:28;21.00;74.90
9057;DHT22;4563;54.756;9.400;2022-09-09T11:51:01;21.00;74.50
9057;DHT22;4563;54.756;9.400;2022-09-09T11:53:28;21.10;73.90
9057;DHT22;4563;54.756;9.400;2022-09-09T11:56:07;21.10;73.10
9057;DHT22;4563;54.756;9.400;2022-09-09T11:58:43;21.20;72.20
9057;DHT22;4563;54.756;9.400;2022-09-09T12:01:16;21.20;72.00
9057;DHT22;4563;54.756;9.400;2022-09-09T12:04:01;21.20;71.80
9057;DHT22;4563;54.756;9.400;2022-09-09T12:06:33;21.20;71.60
9057;DHT22;4563;54.756;9.400;2022-09-09T12:09:12;21.30;71.30
9057;DHT22;4563;54.756;9.400;2022-09-09T12:11:41;21.30;70.70
9057;DHT22;4563;54.756;9.400;2022-09-09T12:14:20;21.30;70.40
9057;DHT22;4563;54.756;9.400;2022-09-09T12:16:48;21.40;70.00
9057;DHT22;4563;54.756;9.400;2022-09-09T12:19:19;21.40;69.90
9057;DHT22;4563;54.756;9.400;2022-09-09T12:21:54;21.40;69.80
9057;DHT22;4563;54.756;9.400;2022-09-09T12:24:31;21.50;69.80
9057;DHT22;4563;54.756;9.400;2022-09-09T12:27:07;21.50;69.60
9057;DHT22;4563;54.756;9.400;2022-09-09T12:29:40;21.50;69.60
9057;DHT22;4563;54.756;9.400;2022-09-09T12:32:10;21.50;69.50
9057;DHT22;4563;54.756;9.400;2022-09-09T12:34:41;21.50;69.10
9057;DHT22;4563;54.756;9.400;2022-09-09T12:37:21;21.50;68.90
9057;DHT22;4563;54.756;9.400;2022-09-09T12:39:54;21.60;68.90
9057;DHT22;4563;54.756;9.400;2022-09-09T12:42:22;21.50;68.70
9057;DHT22;4563;54.756;9.400;2022-09-09T12:44:54;21.60;68.80
9057;DHT22;4563;54.756;9.400;2022-09-09T12:47:25;21.50;68.60
9057;DHT22;4563;54.756;9.400;2022-09-09T12:49:55;21.50;68.60
9057;DHT22;4563;54.756;9.400;2022-09-09T12:52:26;21.50;68.40
9057;DHT22;4563;54.756;9.400;2022-09-09T12:54:56;21.50;68.40
9057;DHT22;4563;54.756;9.400;2022-09-09T12:57:25;21.50;68.50
9057;DHT22;4563;54.756;9.400;2022-09-09T13:00:03;21.50;68.80
9057;DHT22;4563;54.756;9.400;2022-09-09T13:02:32;21.50;69.10
9057;DHT22;4563;54.756;9.400;2022-09-09T13:05:14;21.50;69.30
9057;DHT22;4563;54.756;9.400;2022-09-09T13:07:42;21.50;69.20
9057;DHT22;4563;54.756;9.400;2022-09-09T13:10:11;21.50;69.40
9057;DHT22;4563;54.756;9.400;2022-09-09T13:12:39;21.60;69.10
9057;DHT22;4563;54.756;9.400;2022-09-09T13:15:15;21.60;69.00
9057;DHT22;4563;54.756;9.400;2022-09-09T13:17:53;21.60;69.40
9057;DHT22;4563;54.756;9.400;2022-09-09T13:20:22;21.60;68.30
9057;DHT22;4563;54.756;9.400;2022-09-09T13:22:51;21.60;68.10
9057;DHT22;4563;54.756;9.400;2022-09-09T13:25:22;21.70;68.10
9057;DHT22;4563;54.756;9.400;2022-09-09T13:27:55;21.70;68.30
9057;DHT22;4563;54.756;9.400;2022-09-09T13:30:24;21.70;68.50
9057;DHT22;4563;54.756;9.400;2022-09-09T13:33:21;21.70;68.60
9057;DHT22;4563;54.756;9.400;2022-09-09T13:35:52;21.70;68.60
9057;DHT22;4563;54.756;9.400;2022-09-09T13:38:20;21.70;68.90
9057;DHT22;4563;54.756;9.400;2022-09-09T13:40:58;21.60;68.90
9057;DHT22;4563;54.756;9.400;2022-09-09T13:43:28;21.70;69.20
9057;DHT22;4563;54.756;9.400;2022-09-09T13:45:57;21.60;69.60
9057;DHT22;4563;54.756;9.400;2022-09-09T13:48:25;21.60;69.80
9057;DHT22;4563;54.756;9.400;2022-09-09T13:51:02;21.60;69.80
9057;DHT22;4563;54.756;9.400;2022-09-09T13:53:30;21.50;69.60
9057;DHT22;4563;54.756;9.400;2022-09-09T13:55:58;21.50;69.90
9057;DHT22;4563;54.756;9.400;2022-09-09T13:58:26;21.50;70.20
9057;DHT22;4563;54.756;9.400;2022-09-09T14:00:53;21.40;70.30
9057;DHT22;4563;54.756;9.400;2022-09-09T14:03:20;21.40;70.60
9057;DHT22;4563;54.756;9.400;2022-09-09T14:05:47;21.40;71.00
9057;DHT22;4563;54.756;9.400;2022-09-09T14:08:22;21.40;71.40
9057;DHT22;4563;54.756;9.400;2022-09-09T14:10:50;21.40;71.40
9057;DHT22;4563;54.756;9.400;2022-09-09T14:13:18;21.40;71.20
9057;DHT22;4563;54.756;9.400;2022-09-09T14:15:48;21.50;71.30
9057;DHT22;4563;54.756;9.400;2022-09-09T14:18:15;21.50;71.60
9057;DHT22;4563;54.756;9.400;2022-09-09T14:20:41;21.60;71.80
9057;DHT22;4563;54.756;9.400;2022-09-09T14:23:10;21.60;71.50
9057;DHT22;4563;54.756;9.400;2022-09-09T14:25:41;21.60;71.10
9057;DHT22;4563;54.756;9.400;2022-09-09T14:28:12;21.70;70.80
9057;DHT22;4563;54.756;9.400;2022-09-09T14:30:41;21.70;70.20
9057;DHT22;4563;54.756;9.400;2022-09-09T14:33:11;21.70;69.90
9057;DHT22;4563;54.756;9.400;2022-09-09T14:35:39;21.80;70.00
9057;DHT22;4563;54.756;9.400;2022-09-09T14:38:06;21.80;69.90
9057;DHT22;4563;54.756;9.400;2022-09-09T14:40:34;21.80;69.90
9057;DHT22;4563;54.756;9.400;2022-09-09T14:43:02;21.90;70.00
9057;DHT22;4563;54.756;9.400;2022-09-09T14:45:30;21.90;69.80
9057;DHT22;4563;54.756;9.400;2022-09-09T14:47:56;21.90;69.90
9057;DHT22;4563;54.756;9.400;2022-09-09T14:50:24;21.90;70.00
9057;DHT22;4563;54.756;9.400;2022-09-09T14:52:51;21.90;69.90
9057;DHT22;4563;54.756;9.400;2022-09-09T14:55:18;21.90;69.90
9057;DHT22;4563;54.756;9.400;2022-09-09T14:57:45;21.90;69.70
9057;DHT22;4563;54.756;9.400;2022-09-09T15:00:14;21.90;69.70
9057;DHT22;4563;54.756;9.400;2022-09-09T15:02:41;21.90;70.00
9057;DHT22;4563;54.756;9.400;2022-09-09T15:05:08;21.90;70.00
9057;DHT22;4563;54.756;9.400;2022-09-09T15:07:36;21.90;70.10
9057;DHT22;4563;54.756;9.400;2022-09-09T15:10:04;21.90;69.70
9057;DHT22;4563;54.756;9.400;2022-09-09T15:12:31;21.90;69.50
9057;DHT22;4563;54.756;9.400;2022-09-09T15:14:58;21.90;69.70
9057;DHT22;4563;54.756;9.400;2022-09-09T15:17:27;22.00;70.00
9057;DHT22;4563;54.756;9.400;2022-09-09T15:19:53;21.90;70.00
9057;DHT22;4563;54.756;9.400;2022-09-09T15:22:20;21.90;70.00
9057;DHT22;4563;54.756;9.400;2022-09-09T15:24:48;21.90;70.00
9057;DHT22;4563;54.756;9.400;2022-09-09T15:27:14;21.90;70.00
9057;DHT22;4563;54.756;9.400;2022-09-09T15:29:41;21.90;70.00
9057;DHT22;4563;54.756;9.400;2022-09-09T15:32:09;21.90;70.00
9057;DHT22;4563;54.756;9.400;2022-09-09T15:34:38;21.90;70.10
9057;DHT22;4563;54.756;9.400;2022-09-09T15:37:05;21.90;70.00
9057;DHT22;4563;54.756;9.400;2022-09-09T15:39:32;21.90;70.10
9057;DHT22;4563;54.756;9.400;2022-09-09T15:41:59;21.90;70.00
9057;DHT22;4563;54.756;9.400;2022-09-09T15:44:27;21.90;69.80
9057;DHT22;4563;54.756;9.400;2022-09-09T15:46:53;21.90;69.40
9057;DHT22;4563;54.756;9.400;2022-09-09T15:49:22;21.80;69.40
9057;DHT22;4563;54.756;9.400;2022-09-09T15:51:53;21.90;69.70
9057;DHT22;4563;54.756;9.400;2022-09-09T15:54:21;21.80;69.30
9057;DHT22;4563;54.756;9.400;2022-09-09T15:56:51;21.80;69.20
9057;DHT22;4563;54.756;9.400;2022-09-09T15:59:20;21.80;69.20
9057;DHT22;4563;54.756;9.400;2022-09-09T16:01:47;21.80;69.10
9057;DHT22;4563;54.756;9.400;2022-09-09T16:04:16;21.80;69.30
9057;DHT22;4563;54.756;9.400;2022-09-09T16:06:48;21.70;69.40
9057;DHT22;4563;54.756;9.400;2022-09-09T16:09:17;21.70;69.40
9057;DHT22;4563;54.756;9.400;2022-09-09T16:11:44;21.70;69.50
9057;DHT22;4563;54.756;9.400;2022-09-09T16:14:12;21.70;69.60
9057;DHT22;4563;54.756;9.400;2022-09-09T16:16:39;21.70;69.70
9057;DHT22;4563;54.756;9.400;2022-09-09T16:19:08;21.70;69.80
9057;DHT22;4563;54.756;9.400;2022-09-09T16:21:37;21.70;69.90
9057;DHT22;4563;54.756;9.400;2022-09-09T16:24:06;21.70;69.90
9057;DHT22;4563;54.756;9.400;2022-09-09T16:26:39;21.70;70.00
9057;DHT22;4563;54.756;9.400;2022-09-09T16:29:06;21.60;69.80